TRLO2: Red River Nr Terral, OK

Data processed at Wed Jul 23 23:08:07 2014 Central Daylight Time


All information presented herein is the property of the government of the United States of America and may be revised or deleted at any time without prior notice.
Dissemination of this information without the expressed written consent of the Public Affairs Office, Tulsa District U.S. Army Corps of Engineers is strictly prohibited.
These data are gathered electronically and, as presented, have not undergone any form of quality control. These data are not guaranteed to be valid or correct.
Go to home page.
Go to station list.
Go to station map.

Upstream stations:

Downstream station: Previous Day
Next Day
Current Day

Display graphics.
Display DCP transmissions.


    
    SHEF ID:       TRLO2     Red River Nr Terral, OK
    STATION TYPE:  STREAM GAGE
    Regulation Limits:  Stage =   22.00, Flow =   86940
    
                   PRECIP PRECIP(2)     STAGE  RIV-FLOW   VOLTAGE  BAT-LOAD
                   INCHES    INCHES      FEET       CFS     VOLTS     VOLTS
                     GOES      GOES      GOES      GOES      GOES      GOES
       (Cen)
    07/23 01:00      0.00      0.00      9.11      2306     13.10     12.77
    07/23 02:00      0.00      0.00      9.05      2257     13.10     12.77
    07/23 03:00      0.00      0.00      8.99      2208     13.10     12.71
    07/23 04:00      0.00      0.00      8.93      2133     13.10     12.71
    07/23 05:00      0.00      0.00      8.89      2080     13.10     12.71
    07/23 06:00      0.00      0.00      8.84      2015     13.00     12.65
    07/23 07:00      0.00      0.00      8.79      1952     13.00     12.65
    07/23 08:00      0.00      0.00      8.75      1902     13.20     12.65
    07/23 09:00      0.00      0.00      8.73      1877     13.50     12.83
    07/23 10:00      0.00      0.00      8.69      1827     13.70     13.18
    07/23 11:00      0.00      0.00      8.65      1774     13.60     13.24
    07/23 12:00      0.00      0.00      8.62      1735     13.40     13.18
    07/23 13:00      0.00      0.00      8.58      1684     13.30     13.00
    07/23 14:00      0.00      0.00      8.54      1634     13.30     13.00
    07/23 15:00      0.00      0.00      8.52      1610     13.40     13.07
    07/23 16:00      0.00      0.00      8.48      1561     13.30     13.00
    07/23 17:00      0.00      0.00      8.45      1525     13.20     12.95
    07/23 18:00      0.00      0.00      8.40      1467     13.40     12.89
    07/23 19:00      0.00      0.00      8.36      1422     13.80     12.95
    07/23 20:00      0.00      0.00      8.33      1389     13.40     13.30
    07/23 21:00      0.00      0.00      8.30      1356     13.30     13.07
    07/23 22:00      0.00      0.00      8.28      1335     13.20     12.89
    07/23 23:00      0.00      0.00      8.25      1303     13.20     12.89
    07/24 00:00      ----      ----      ----      ----      ----      ----